ITY772 LIRF-FIMP
Flight info
| Callsign | ITY772 |
|---|---|
| Flight time | N/A |
| Altitude | 19000 |
| Route | PEPIX L50 UNIXO/N0477F330 DCT ENSOT DCT TAGEL DCT DIRED DCT LEVDI/N0474F350 DCT NIMAN DCT ARLOS UN4 SALUN N705 BOPIX N710 TAKRI P751 LXR M999 JDW G650 RASKA/N0494F340 G650 DULAB/N0488F360 G650 KONET/N0489F350 DCT QHA/N0482F370 T112 XADOX DCT DWA N304 AVUSI UN304 UVDOX/N0476F390 UN304 PONIR UA400 RASMA DCT ETKIS FFLAC1 |
| Aircraft | A339/H-SADE1E2E3GHIJ3J5M1P2RWXY/LB2D1 |
Departure
| Time | N/A |
|---|---|
| Airport | Rome–Fiumicino Leonardo da Vinci International Airport (LIRF) |
Arrival
| Time | 2026-05-08 14:00 |
|---|---|
| Airport | Sir Seewoosagur Ramgoolam International Airport (FIMP) |
| Time | Latitude | Longitude | Altitude | Speed | Heading |
|---|---|---|---|---|---|
| 2026-05-08 13:11 | -17.45870 | 53.85500 | 33037 ft | 490 kts | 158° |
| 2026-05-08 13:11 | -17.49016 | 53.86978 | 33038 ft | 490 kts | 158° |
| 2026-05-08 13:11 | -17.55214 | 53.89894 | 33037 ft | 490 kts | 157° |
| 2026-05-08 13:12 | -17.61453 | 53.92832 | 33040 ft | 490 kts | 158° |
| 2026-05-08 13:12 | -17.67667 | 53.95758 | 33040 ft | 490 kts | 157° |
| 2026-05-08 13:13 | -17.73854 | 53.98675 | 33039 ft | 490 kts | 157° |
| 2026-05-08 13:13 | -17.80083 | 54.01613 | 33039 ft | 489 kts | 158° |
| 2026-05-08 13:14 | -17.86262 | 54.04532 | 33043 ft | 490 kts | 157° |
| 2026-05-08 13:14 | -17.92476 | 54.07470 | 33041 ft | 490 kts | 157° |
| 2026-05-08 13:15 | -17.98701 | 54.10412 | 33046 ft | 490 kts | 157° |
| 2026-05-08 13:15 | -18.04917 | 54.13353 | 33045 ft | 490 kts | 157° |
| 2026-05-08 13:16 | -18.11156 | 54.16308 | 33045 ft | 490 kts | 157° |
| 2026-05-08 13:16 | -18.17347 | 54.19261 | 33046 ft | 490 kts | 157° |
| 2026-05-08 13:17 | -18.23567 | 54.22232 | 33044 ft | 490 kts | 157° |
| 2026-05-08 13:17 | -18.29750 | 54.25186 | 33046 ft | 490 kts | 157° |
| 2026-05-08 13:18 | -18.35958 | 54.28151 | 33052 ft | 490 kts | 157° |
| 2026-05-08 13:18 | -18.42172 | 54.31125 | 33049 ft | 490 kts | 157° |
| 2026-05-08 13:19 | -18.48380 | 54.34097 | 33052 ft | 490 kts | 157° |
| 2026-05-08 13:19 | -18.54593 | 54.37073 | 33051 ft | 490 kts | 157° |
| 2026-05-08 13:20 | -18.60811 | 54.40053 | 33055 ft | 490 kts | 157° |
| 2026-05-08 13:20 | -18.66989 | 54.43018 | 33055 ft | 490 kts | 157° |
| 2026-05-08 13:21 | -18.73206 | 54.46003 | 33057 ft | 491 kts | 157° |
| 2026-05-08 13:21 | -18.79426 | 54.48993 | 33057 ft | 491 kts | 157° |
| 2026-05-08 13:22 | -18.85651 | 54.51987 | 33060 ft | 491 kts | 157° |
| 2026-05-08 13:22 | -18.91822 | 54.54957 | 33059 ft | 490 kts | 157° |
| 2026-05-08 13:23 | -18.98043 | 54.57955 | 33063 ft | 490 kts | 157° |
| 2026-05-08 13:23 | -19.04231 | 54.60939 | 33059 ft | 490 kts | 157° |
| 2026-05-08 13:24 | -19.10441 | 54.63936 | 33065 ft | 490 kts | 157° |
| 2026-05-08 13:24 | -19.16657 | 54.66938 | 33066 ft | 490 kts | 157° |
| 2026-05-08 13:25 | -19.22884 | 54.69946 | 33062 ft | 491 kts | 157° |
| 2026-05-08 13:25 | -19.29055 | 54.72934 | 33066 ft | 490 kts | 157° |
| 2026-05-08 13:26 | -19.35264 | 54.75941 | 33067 ft | 490 kts | 157° |
| 2026-05-08 13:26 | -19.41468 | 54.78950 | 33069 ft | 491 kts | 157° |
| 2026-05-08 13:27 | -19.47684 | 54.81965 | 33070 ft | 491 kts | 157° |
| 2026-05-08 13:27 | -19.53860 | 54.84965 | 33065 ft | 490 kts | 157° |
| 2026-05-08 13:28 | -19.60063 | 54.87978 | 33068 ft | 490 kts | 157° |
| 2026-05-08 13:28 | -19.66273 | 54.90998 | 33073 ft | 491 kts | 157° |
| 2026-05-08 13:29 | -19.72490 | 54.94023 | 33074 ft | 490 kts | 157° |
| 2026-05-08 13:29 | -19.78667 | 54.97034 | 33073 ft | 491 kts | 157° |
| 2026-05-08 13:30 | -19.84888 | 55.00067 | 33074 ft | 491 kts | 157° |
| 2026-05-08 13:30 | -19.91101 | 55.03098 | 33070 ft | 491 kts | 157° |
| 2026-05-08 13:31 | -19.97270 | 55.06111 | 33075 ft | 491 kts | 157° |
| 2026-05-08 13:31 | -20.03224 | 55.09696 | 33072 ft | 494 kts | 142° |
| 2026-05-08 13:32 | -20.05679 | 55.12273 | 33065 ft | 497 kts | 131° |
| 2026-05-08 13:32 | -20.07640 | 55.15312 | 33070 ft | 499 kts | 120° |
| 2026-05-08 13:32 | -20.09029 | 55.18694 | 33065 ft | 501 kts | 109° |
| 2026-05-08 13:32 | -20.09798 | 55.22302 | 33070 ft | 502 kts | 98° |
| 2026-05-08 13:33 | -20.10402 | 55.29687 | 33071 ft | 502 kts | 95° |
| 2026-05-08 13:33 | -20.11197 | 55.37073 | 33068 ft | 502 kts | 98° |
| 2026-05-08 13:34 | -20.12200 | 55.44428 | 33072 ft | 502 kts | 99° |
| 2026-05-08 13:34 | -20.13241 | 55.51777 | 33066 ft | 502 kts | 99° |
| 2026-05-08 13:35 | -20.14265 | 55.59055 | 32723 ft | 497 kts | 99° |
| 2026-05-08 13:35 | -20.14774 | 55.62684 | 32233 ft | 494 kts | 99° |
| 2026-05-08 13:35 | -20.15277 | 55.66286 | 31672 ft | 491 kts | 99° |
| 2026-05-08 13:36 | -20.15776 | 55.69859 | 31117 ft | 486 kts | 99° |
| 2026-05-08 13:36 | -20.16269 | 55.73396 | 30521 ft | 481 kts | 99° |
| 2026-05-08 13:36 | -20.16754 | 55.76878 | 29929 ft | 477 kts | 99° |
| 2026-05-08 13:36 | -20.17238 | 55.80357 | 29294 ft | 472 kts | 99° |
| 2026-05-08 13:37 | -20.17715 | 55.83794 | 28699 ft | 467 kts | 99° |
| 2026-05-08 13:37 | -20.18184 | 55.87174 | 28119 ft | 461 kts | 99° |
| 2026-05-08 13:37 | -20.18650 | 55.90534 | 27527 ft | 456 kts | 98° |
| 2026-05-08 13:37 | -20.19110 | 55.93863 | 26978 ft | 451 kts | 98° |
| 2026-05-08 13:38 | -20.19564 | 55.97155 | 26393 ft | 446 kts | 98° |
| 2026-05-08 13:38 | -20.19862 | 55.99313 | 26022 ft | 443 kts | 98° |
| 2026-05-08 13:38 | -20.20472 | 56.03593 | 25280 ft | 436 kts | 101° |
| 2026-05-08 13:38 | -20.20919 | 56.05715 | 24905 ft | 433 kts | 103° |
| 2026-05-08 13:39 | -20.21611 | 56.08790 | 24354 ft | 428 kts | 103° |
| 2026-05-08 13:39 | -20.22516 | 56.12868 | 23612 ft | 423 kts | 103° |
| 2026-05-08 13:39 | -20.22969 | 56.14924 | 23179 ft | 419 kts | 103° |
| 2026-05-08 13:39 | -20.23621 | 56.17893 | 22569 ft | 414 kts | 103° |
| 2026-05-08 13:40 | -20.24272 | 56.20865 | 21955 ft | 408 kts | 103° |
| 2026-05-08 13:40 | -20.24911 | 56.23787 | 21424 ft | 401 kts | 103° |
| 2026-05-08 13:40 | -20.25539 | 56.26657 | 21211 ft | 399 kts | 103° |
| 2026-05-08 13:40 | -20.26159 | 56.29491 | 21102 ft | 402 kts | 103° |
| 2026-05-08 13:41 | -20.26789 | 56.32375 | 21085 ft | 401 kts | 103° |
| 2026-05-08 13:41 | -20.27422 | 56.35271 | 21082 ft | 401 kts | 103° |
| 2026-05-08 13:41 | -20.28052 | 56.38157 | 21080 ft | 401 kts | 103° |
| 2026-05-08 13:41 | -20.28685 | 56.41058 | 21076 ft | 402 kts | 103° |
| 2026-05-08 13:42 | -20.29316 | 56.43955 | 21082 ft | 402 kts | 103° |
| 2026-05-08 13:42 | -20.29946 | 56.46851 | 21080 ft | 402 kts | 103° |
| 2026-05-08 13:42 | -20.30592 | 56.49754 | 21070 ft | 402 kts | 105° |
| 2026-05-08 13:42 | -20.31376 | 56.52600 | 21083 ft | 402 kts | 104° |
| 2026-05-08 13:43 | -20.32026 | 56.55494 | 21084 ft | 402 kts | 103° |
| 2026-05-08 13:43 | -20.32637 | 56.58387 | 21077 ft | 402 kts | 102° |
| 2026-05-08 13:43 | -20.33176 | 56.61326 | 21082 ft | 402 kts | 100° |
| 2026-05-08 13:43 | -20.33648 | 56.64250 | 21076 ft | 402 kts | 99° |
| 2026-05-08 13:44 | -20.34091 | 56.67205 | 21079 ft | 403 kts | 99° |
| 2026-05-08 13:44 | -20.34520 | 56.70162 | 21080 ft | 403 kts | 99° |
| 2026-05-08 13:44 | -20.34937 | 56.73068 | 21082 ft | 403 kts | 99° |
| 2026-05-08 13:44 | -20.35361 | 56.76014 | 21081 ft | 403 kts | 99° |
| 2026-05-08 13:45 | -20.35791 | 56.78998 | 21073 ft | 403 kts | 99° |
| 2026-05-08 13:45 | -20.36216 | 56.81938 | 20806 ft | 401 kts | 99° |
| 2026-05-08 13:45 | -20.36642 | 56.84888 | 20258 ft | 402 kts | 99° |
| 2026-05-08 13:45 | -20.37060 | 56.87785 | 20093 ft | 387 kts | 99° |
| 2026-05-08 13:46 | -20.37456 | 56.90537 | 19671 ft | 377 kts | 99° |
| 2026-05-08 13:46 | -20.37852 | 56.93289 | 19090 ft | 373 kts | 99° |
| 2026-05-08 13:46 | -20.38243 | 56.96010 | 18515 ft | 370 kts | 99° |
| 2026-05-08 13:46 | -20.38631 | 56.98709 | 17888 ft | 366 kts | 99° |
| 2026-05-08 13:47 | -20.39013 | 57.01375 | 17265 ft | 362 kts | 99° |
| 2026-05-08 13:47 | -20.39391 | 57.04011 | 16653 ft | 358 kts | 99° |
| 2026-05-08 13:47 | -20.39764 | 57.06617 | 16047 ft | 354 kts | 99° |
| 2026-05-08 13:47 | -20.40131 | 57.09183 | 15455 ft | 350 kts | 99° |
| 2026-05-08 13:48 | -20.40495 | 57.11736 | 14869 ft | 346 kts | 99° |
| 2026-05-08 13:48 | -20.40855 | 57.14265 | 14283 ft | 342 kts | 99° |
| 2026-05-08 13:48 | -20.41209 | 57.16746 | 13579 ft | 334 kts | 99° |
| 2026-05-08 13:48 | -20.41554 | 57.19162 | 12800 ft | 326 kts | 99° |
| 2026-05-08 13:49 | -20.41890 | 57.21516 | 12034 ft | 318 kts | 99° |
| 2026-05-08 13:49 | -20.42216 | 57.23801 | 11309 ft | 310 kts | 99° |
| 2026-05-08 13:49 | -20.42403 | 57.26066 | 10588 ft | 303 kts | 91° |
| 2026-05-08 13:49 | -20.42267 | 57.28284 | 9866 ft | 297 kts | 83° |
| 2026-05-08 13:50 | -20.41989 | 57.30446 | 9088 ft | 290 kts | 83° |
| 2026-05-08 13:50 | -20.41734 | 57.32555 | 8312 ft | 284 kts | 83° |
| 2026-05-08 13:50 | -20.41495 | 57.34622 | 7566 ft | 278 kts | 83° |
| 2026-05-08 13:50 | -20.41266 | 57.36633 | 6838 ft | 272 kts | 84° |
| 2026-05-08 13:51 | -20.41189 | 57.37306 | 6597 ft | 271 kts | 84° |
| 2026-05-08 13:51 | -20.40964 | 57.39285 | 5824 ft | 265 kts | 84° |
| 2026-05-08 13:51 | -20.40751 | 57.41187 | 5364 ft | 248 kts | 84° |
| 2026-05-08 13:52 | -20.40556 | 57.42933 | 5198 ft | 227 kts | 84° |
| 2026-05-08 13:52 | -20.40369 | 57.44545 | 4978 ft | 214 kts | 84° |
| 2026-05-08 13:52 | -20.40191 | 57.46114 | 4483 ft | 213 kts | 84° |
| 2026-05-08 13:52 | -20.40012 | 57.47686 | 4134 ft | 211 kts | 84° |
| 2026-05-08 13:53 | -20.39835 | 57.49220 | 4026 ft | 214 kts | 84° |
| 2026-05-08 13:53 | -20.39654 | 57.50802 | 3998 ft | 212 kts | 84° |
| 2026-05-08 13:53 | -20.39477 | 57.52349 | 3996 ft | 211 kts | 84° |
| 2026-05-08 13:53 | -20.39292 | 57.53926 | 3996 ft | 214 kts | 85° |
| 2026-05-08 13:54 | -20.39120 | 57.55471 | 3911 ft | 210 kts | 84° |
| 2026-05-08 13:54 | -20.38712 | 57.56958 | 3599 ft | 212 kts | 63° |
| 2026-05-08 13:54 | -20.37750 | 57.58149 | 3215 ft | 218 kts | 38° |
| 2026-05-08 13:54 | -20.36320 | 57.58668 | 3034 ft | 221 kts | 6° |
| 2026-05-08 13:55 | -20.34762 | 57.58338 | 3007 ft | 233 kts | 342° |
| 2026-05-08 13:55 | -20.33392 | 57.57484 | 2994 ft | 227 kts | 316° |
| 2026-05-08 13:55 | -20.32650 | 57.54392 | 2997 ft | 225 kts | 250° |
| 2026-05-08 13:56 | -20.33460 | 57.53029 | 2992 ft | 212 kts | 216° |
| 2026-05-08 13:56 | -20.34769 | 57.52450 | 3003 ft | 205 kts | 175° |
| 2026-05-08 13:56 | -20.36010 | 57.52925 | 2996 ft | 188 kts | 133° |
| 2026-05-08 13:56 | -20.36566 | 57.54117 | 3031 ft | 181 kts | 103° |
| 2026-05-08 13:57 | -20.36885 | 57.55394 | 2947 ft | 173 kts | 106° |
| 2026-05-08 13:57 | -20.37314 | 57.56561 | 2706 ft | 164 kts | 112° |
| 2026-05-08 13:57 | -20.37830 | 57.57601 | 2461 ft | 154 kts | 117° |
| 2026-05-08 13:57 | -20.38321 | 57.58578 | 2230 ft | 145 kts | 115° |
| 2026-05-08 13:58 | -20.38754 | 57.59481 | 2016 ft | 135 kts | 115° |
| 2026-05-08 13:58 | -20.39193 | 57.60396 | 1802 ft | 138 kts | 115° |
| 2026-05-08 13:58 | -20.39612 | 57.61263 | 1601 ft | 131 kts | 116° |
| 2026-05-08 13:58 | -20.40047 | 57.62172 | 1389 ft | 136 kts | 117° |
| 2026-05-08 13:59 | -20.40482 | 57.63067 | 1188 ft | 142 kts | 116° |
| 2026-05-08 13:59 | -20.40930 | 57.64003 | 972 ft | 137 kts | 117° |
| 2026-05-08 13:59 | -20.41388 | 57.64938 | 765 ft | 146 kts | 116° |
| 2026-05-08 13:59 | -20.41838 | 57.65881 | 547 ft | 140 kts | 113° |
| 2026-05-08 14:00 | -20.42277 | 57.66817 | 293 ft | 142 kts | 115° |
| 2026-05-08 14:00 | -20.42741 | 57.67774 | 199 ft | 139 kts | 117° |
| 2026-05-08 14:00 | -20.43012 | 57.68337 | 183 ft | 48 kts | 117° |
| 2026-05-08 14:00 | -20.43153 | 57.68630 | 189 ft | 41 kts | 116° |
| 2026-05-08 14:01 | -20.43268 | 57.68868 | 183 ft | 34 kts | 117° |
| 2026-05-08 14:01 | -20.43367 | 57.69071 | 180 ft | 19 kts | 117° |
| 2026-05-08 14:01 | -20.43428 | 57.69202 | 180 ft | 21 kts | 118° |
| 2026-05-08 14:01 | -20.43494 | 57.69339 | 180 ft | 15 kts | 117° |
| 2026-05-08 14:02 | -20.43560 | 57.69356 | 181 ft | 9 kts | 203° |
| 2026-05-08 14:02 | -20.43627 | 57.69329 | 181 ft | 11 kts | 202° |
| 2026-05-08 14:02 | -20.43665 | 57.69292 | 182 ft | 1 kts | 249° |
| 2026-05-08 14:02 | -20.43651 | 57.69265 | 181 ft | 7 kts | 293° |
| 2026-05-08 14:03 | -20.43623 | 57.69200 | 180 ft | 12 kts | 297° |
| 2026-05-08 14:03 | -20.43579 | 57.69110 | 179 ft | 15 kts | 297° |
| 2026-05-08 14:03 | -20.43529 | 57.69006 | 180 ft | 17 kts | 297° |
| 2026-05-08 14:03 | -20.43469 | 57.68885 | 179 ft | 20 kts | 298° |
| 2026-05-08 14:04 | -20.43401 | 57.68746 | 182 ft | 24 kts | 296° |
| 2026-05-08 14:04 | -20.43321 | 57.68573 | 184 ft | 27 kts | 296° |
| 2026-05-08 14:04 | -20.43254 | 57.68431 | 201 ft | 16 kts | 287° |
| 2026-05-08 14:04 | -20.43286 | 57.68355 | 201 ft | 9 kts | 259° |
| 2026-05-08 14:05 | -20.43268 | 57.68286 | 202 ft | 11 kts | 293° |
| 2026-05-08 14:05 | -20.43230 | 57.68204 | 199 ft | 15 kts | 295° |
| 2026-05-08 14:05 | -20.43207 | 57.68091 | 193 ft | 13 kts | 251° |
| 2026-05-08 14:05 | -20.43264 | 57.68081 | 193 ft | 9 kts | 172° |
| 2026-05-08 14:06 | -20.43289 | 57.68065 | 191 ft | 4 kts | 241° |
| 2026-05-08 14:06 | -20.43307 | 57.68028 | 183 ft | 8 kts | 247° |
| 2026-05-08 14:06 | -20.43320 | 57.67989 | 183 ft | 0 kts | 250° |